sensor_id;sensor_type;location;lat;lon;timestamp;pressure;altitude;pressure_sealevel;temperature;humidity
18137;BME280;9194;42.632;23.298;2024-01-10T00:00:20;93519.00;;;-6.29;100.00
18137;BME280;9194;42.632;23.298;2024-01-10T00:05:22;93526.59;;;-6.29;100.00
18137;BME280;9194;42.632;23.298;2024-01-10T00:10:23;93517.50;;;-6.18;100.00
18137;BME280;9194;42.632;23.298;2024-01-10T00:15:25;93519.81;;;-6.15;100.00
18137;BME280;9194;42.632;23.298;2024-01-10T00:20:26;93520.53;;;-6.13;100.00
18137;BME280;9194;42.632;23.298;2024-01-10T00:25:28;93530.16;;;-6.18;100.00
18137;BME280;9194;42.632;23.298;2024-01-10T00:30:29;93535.81;;;-6.28;100.00
18137;BME280;9194;42.632;23.298;2024-01-10T00:35:31;93535.69;;;-6.39;100.00
18137;BME280;9194;42.632;23.298;2024-01-10T00:40:32;93531.97;;;-6.33;100.00
18137;BME280;9194;42.632;23.298;2024-01-10T00:45:34;93535.19;;;-6.44;100.00
18137;BME280;9194;42.632;23.298;2024-01-10T00:50:35;93530.84;;;-6.42;100.00
18137;BME280;9194;42.632;23.298;2024-01-10T00:55:36;93533.03;;;-6.50;100.00
18137;BME280;9194;42.632;23.298;2024-01-10T01:00:37;93532.75;;;-6.45;100.00
18137;BME280;9194;42.632;23.298;2024-01-10T01:05:38;93533.38;;;-6.42;100.00
18137;BME280;9194;42.632;23.298;2024-01-10T01:10:40;93537.94;;;-6.47;100.00
18137;BME280;9194;42.632;23.298;2024-01-10T01:15:41;93533.84;;;-6.49;100.00
18137;BME280;9194;42.632;23.298;2024-01-10T01:20:42;93518.09;;;-6.28;100.00
18137;BME280;9194;42.632;23.298;2024-01-10T01:25:43;93534.22;;;-6.16;100.00
18137;BME280;9194;42.632;23.298;2024-01-10T01:30:44;93520.31;;;-6.36;100.00
18137;BME280;9194;42.632;23.298;2024-01-10T01:35:46;93512.13;;;-6.27;100.00
18137;BME280;9194;42.632;23.298;2024-01-10T01:40:47;93518.59;;;-6.23;100.00
18137;BME280;9194;42.632;23.298;2024-01-10T01:45:52;93518.28;;;-6.31;100.00
18137;BME280;9194;42.632;23.298;2024-01-10T01:51:02;93510.38;;;-6.26;100.00
18137;BME280;9194;42.632;23.298;2024-01-10T01:56:07;93511.50;;;-6.30;100.00
18137;BME280;9194;42.632;23.298;2024-01-10T02:01:09;93507.94;;;-6.28;100.00
18137;BME280;9194;42.632;23.298;2024-01-10T02:06:11;93494.06;;;-6.35;100.00
18137;BME280;9194;42.632;23.298;2024-01-10T02:11:13;93488.31;;;-6.37;100.00
18137;BME280;9194;42.632;23.298;2024-01-10T02:16:14;93500.06;;;-6.36;100.00
18137;BME280;9194;42.632;23.298;2024-01-10T02:21:16;93488.22;;;-6.35;100.00
18137;BME280;9194;42.632;23.298;2024-01-10T02:26:17;93500.84;;;-6.23;100.00
18137;BME280;9194;42.632;23.298;2024-01-10T02:31:18;93493.66;;;-6.16;100.00
18137;BME280;9194;42.632;23.298;2024-01-10T02:36:20;93487.41;;;-6.36;100.00
18137;BME280;9194;42.632;23.298;2024-01-10T02:41:21;93500.66;;;-6.32;100.00
18137;BME280;9194;42.632;23.298;2024-01-10T02:46:22;93489.59;;;-6.44;100.00
18137;BME280;9194;42.632;23.298;2024-01-10T02:51:26;93492.75;;;-6.53;100.00
18137;BME280;9194;42.632;23.298;2024-01-10T02:56:28;93498.59;;;-6.65;100.00
18137;BME280;9194;42.632;23.298;2024-01-10T03:01:29;93510.63;;;-6.69;100.00
18137;BME280;9194;42.632;23.298;2024-01-10T03:06:30;93503.75;;;-6.67;100.00
18137;BME280;9194;42.632;23.298;2024-01-10T03:11:31;93508.19;;;-6.70;100.00
18137;BME280;9194;42.632;23.298;2024-01-10T03:16:35;93505.47;;;-6.67;100.00
18137;BME280;9194;42.632;23.298;2024-01-10T03:21:36;93506.19;;;-6.65;100.00
18137;BME280;9194;42.632;23.298;2024-01-10T03:26:37;93490.47;;;-6.57;100.00
18137;BME280;9194;42.632;23.298;2024-01-10T03:31:38;93508.56;;;-6.37;100.00
18137;BME280;9194;42.632;23.298;2024-01-10T03:36:40;93498.94;;;-6.32;100.00
18137;BME280;9194;42.632;23.298;2024-01-10T03:41:41;93495.50;;;-6.31;100.00
18137;BME280;9194;42.632;23.298;2024-01-10T03:46:42;93493.66;;;-6.16;100.00
18137;BME280;9194;42.632;23.298;2024-01-10T03:51:43;93495.63;;;-6.07;100.00
18137;BME280;9194;42.632;23.298;2024-01-10T03:56:44;93509.47;;;-6.00;100.00
18137;BME280;9194;42.632;23.298;2024-01-10T04:01:46;93504.53;;;-6.01;100.00
18137;BME280;9194;42.632;23.298;2024-01-10T04:06:47;93505.13;;;-5.98;100.00
18137;BME280;9194;42.632;23.298;2024-01-10T04:11:48;93505.66;;;-6.18;100.00
18137;BME280;9194;42.632;23.298;2024-01-10T04:16:49;93505.63;;;-6.05;100.00
18137;BME280;9194;42.632;23.298;2024-01-10T04:21:51;93525.28;;;-6.22;100.00
18137;BME280;9194;42.632;23.298;2024-01-10T04:26:52;93518.00;;;-6.13;100.00
18137;BME280;9194;42.632;23.298;2024-01-10T04:31:54;93531.91;;;-6.06;100.00
18137;BME280;9194;42.632;23.298;2024-01-10T04:36:55;93527.31;;;-6.14;100.00
18137;BME280;9194;42.632;23.298;2024-01-10T04:41:56;93537.03;;;-6.20;100.00
18137;BME280;9194;42.632;23.298;2024-01-10T04:46:57;93543.66;;;-6.18;100.00
18137;BME280;9194;42.632;23.298;2024-01-10T04:51:59;93551.03;;;-6.15;100.00
18137;BME280;9194;42.632;23.298;2024-01-10T04:57:00;93555.28;;;-6.15;100.00
18137;BME280;9194;42.632;23.298;2024-01-10T05:02:01;93552.25;;;-6.08;100.00
18137;BME280;9194;42.632;23.298;2024-01-10T05:07:02;93545.25;;;-6.17;100.00
18137;BME280;9194;42.632;23.298;2024-01-10T05:12:04;93553.66;;;-6.16;100.00
18137;BME280;9194;42.632;23.298;2024-01-10T05:17:06;93555.78;;;-6.23;100.00
18137;BME280;9194;42.632;23.298;2024-01-10T05:22:07;93562.69;;;-6.25;100.00
18137;BME280;9194;42.632;23.298;2024-01-10T05:27:08;93568.06;;;-6.17;100.00
18137;BME280;9194;42.632;23.298;2024-01-10T05:32:10;93560.06;;;-6.24;100.00
18137;BME280;9194;42.632;23.298;2024-01-10T05:37:11;93567.53;;;-6.22;100.00
18137;BME280;9194;42.632;23.298;2024-01-10T05:42:12;93578.41;;;-6.20;100.00
18137;BME280;9194;42.632;23.298;2024-01-10T05:47:15;93583.97;;;-6.15;100.00
18137;BME280;9194;42.632;23.298;2024-01-10T05:52:16;93582.59;;;-6.06;100.00
18137;BME280;9194;42.632;23.298;2024-01-10T05:57:17;93576.84;;;-6.23;100.00
18137;BME280;9194;42.632;23.298;2024-01-10T06:02:18;93585.09;;;-6.19;100.00
18137;BME280;9194;42.632;23.298;2024-01-10T06:07:20;93594.72;;;-6.11;100.00
18137;BME280;9194;42.632;23.298;2024-01-10T06:12:23;93594.44;;;-6.07;100.00
18137;BME280;9194;42.632;23.298;2024-01-10T06:17:26;93595.44;;;-6.09;100.00
18137;BME280;9194;42.632;23.298;2024-01-10T06:22:27;93595.44;;;-6.09;100.00
18137;BME280;9194;42.632;23.298;2024-01-10T06:27:29;93600.03;;;-5.89;100.00
18137;BME280;9194;42.632;23.298;2024-01-10T06:32:31;93600.03;;;-5.89;100.00
18137;BME280;9194;42.632;23.298;2024-01-10T06:37:32;93612.72;;;-5.89;100.00
18137;BME280;9194;42.632;23.298;2024-01-10T06:42:33;93612.56;;;-5.75;100.00
18137;BME280;9194;42.632;23.298;2024-01-10T06:47:34;93612.38;;;-5.72;100.00
18137;BME280;9194;42.632;23.298;2024-01-10T06:52:36;93620.78;;;-5.59;100.00
18137;BME280;9194;42.632;23.298;2024-01-10T06:57:38;93622.34;;;-5.44;100.00
18137;BME280;9194;42.632;23.298;2024-01-10T07:02:39;93623.75;;;-5.27;100.00
18137;BME280;9194;42.632;23.298;2024-01-10T07:07:41;93622.19;;;-5.17;100.00
18137;BME280;9194;42.632;23.298;2024-01-10T07:12:43;93625.28;;;-5.37;100.00
18137;BME280;9194;42.632;23.298;2024-01-10T07:17:44;93628.81;;;-5.27;100.00
18137;BME280;9194;42.632;23.298;2024-01-10T07:22:45;93629.09;;;-5.06;99.90
18137;BME280;9194;42.632;23.298;2024-01-10T07:27:46;93640.06;;;-5.06;95.82
18137;BME280;9194;42.632;23.298;2024-01-10T07:32:47;93650.28;;;-4.82;100.00
18137;BME280;9194;42.632;23.298;2024-01-10T07:37:49;93635.34;;;-4.74;99.20
18137;BME280;9194;42.632;23.298;2024-01-10T07:42:50;93644.25;;;-4.68;94.06
18137;BME280;9194;42.632;23.298;2024-01-10T07:47:52;93643.97;;;-4.76;93.94
18137;BME280;9194;42.632;23.298;2024-01-10T07:52:53;93642.97;;;-4.86;94.03
18137;BME280;9194;42.632;23.298;2024-01-10T07:57:54;93649.50;;;-4.59;89.89
18137;BME280;9194;42.632;23.298;2024-01-10T08:02:55;93638.47;;;-4.70;88.82
18137;BME280;9194;42.632;23.298;2024-01-10T08:07:56;93658.28;;;-4.75;91.11
18137;BME280;9194;42.632;23.298;2024-01-10T08:12:59;93664.34;;;-4.65;89.10
18137;BME280;9194;42.632;23.298;2024-01-10T08:18:00;93671.38;;;-4.69;89.10
18137;BME280;9194;42.632;23.298;2024-01-10T08:23:05;93655.88;;;-4.89;95.65
18137;BME280;9194;42.632;23.298;2024-01-10T08:28:06;93661.56;;;-4.86;91.03
18137;BME280;9194;42.632;23.298;2024-01-10T08:33:07;93673.63;;;-4.77;97.54
18137;BME280;9194;42.632;23.298;2024-01-10T08:38:09;93660.44;;;-4.82;100.00
18137;BME280;9194;42.632;23.298;2024-01-10T08:43:10;93666.94;;;-4.78;98.60
18137;BME280;9194;42.632;23.298;2024-01-10T08:48:11;93673.84;;;-4.80;98.93
18137;BME280;9194;42.632;23.298;2024-01-10T08:53:14;93665.66;;;-4.96;100.00
18137;BME280;9194;42.632;23.298;2024-01-10T08:58:17;93670.06;;;-4.74;100.00
18137;BME280;9194;42.632;23.298;2024-01-10T09:03:18;93657.66;;;-4.66;100.00
18137;BME280;9194;42.632;23.298;2024-01-10T09:08:19;93655.69;;;-4.50;100.00
18137;BME280;9194;42.632;23.298;2024-01-10T09:13:20;93660.38;;;-4.57;100.00
18137;BME280;9194;42.632;23.298;2024-01-10T09:18:21;93658.91;;;-4.48;99.77
18137;BME280;9194;42.632;23.298;2024-01-10T09:23:23;93654.16;;;-4.52;100.00
18137;BME280;9194;42.632;23.298;2024-01-10T09:28:24;93653.75;;;-4.23;100.00
18137;BME280;9194;42.632;23.298;2024-01-10T09:33:25;93654.03;;;-4.15;100.00
18137;BME280;9194;42.632;23.298;2024-01-10T09:38:26;93655.38;;;-4.22;100.00
18137;BME280;9194;42.632;23.298;2024-01-10T09:43:29;93653.97;;;-4.02;100.00
18137;BME280;9194;42.632;23.298;2024-01-10T09:48:31;93647.00;;;-3.76;100.00
18137;BME280;9194;42.632;23.298;2024-01-10T09:53:35;93649.03;;;-3.57;100.00
18137;BME280;9194;42.632;23.298;2024-01-10T09:58:37;93639.47;;;-3.78;99.97
18137;BME280;9194;42.632;23.298;2024-01-10T10:03:41;93644.53;;;-3.89;100.00
18137;BME280;9194;42.632;23.298;2024-01-10T10:08:46;93629.47;;;-3.68;100.00
18137;BME280;9194;42.632;23.298;2024-01-10T10:13:47;93618.28;;;-3.43;100.00
18137;BME280;9194;42.632;23.298;2024-01-10T10:18:49;93616.34;;;-3.17;99.70
18137;BME280;9194;42.632;23.298;2024-01-10T10:23:58;93590.78;;;-3.27;97.11
18137;BME280;9194;42.632;23.298;2024-01-10T10:29:00;93590.19;;;-2.97;97.54
18137;BME280;9194;42.632;23.298;2024-01-10T10:34:02;93584.28;;;-2.86;96.07
18137;BME280;9194;42.632;23.298;2024-01-10T10:39:03;93585.44;;;-3.02;94.46
18137;BME280;9194;42.632;23.298;2024-01-10T10:44:05;93572.78;;;-2.70;94.95
18137;BME280;9194;42.632;23.298;2024-01-10T10:49:11;93571.84;;;-2.69;93.07
18137;BME280;9194;42.632;23.298;2024-01-10T10:54:14;93563.06;;;-2.76;90.85
18137;BME280;9194;42.632;23.298;2024-01-10T10:59:18;93558.56;;;-2.83;92.92
18137;BME280;9194;42.632;23.298;2024-01-10T11:04:21;93558.78;;;-2.75;98.36
18137;BME280;9194;42.632;23.298;2024-01-10T11:09:23;93550.25;;;-2.54;93.75
18137;BME280;9194;42.632;23.298;2024-01-10T11:20:13;93544.75;;;-2.38;94.91
18137;BME280;9194;42.632;23.298;2024-01-10T11:25:14;93531.53;;;-2.32;94.40
18137;BME280;9194;42.632;23.298;2024-01-10T11:30:32;93532.59;;;-2.14;95.22
18137;BME280;9194;42.632;23.298;2024-01-10T11:35:34;93522.19;;;-2.11;95.84
18137;BME280;9194;42.632;23.298;2024-01-10T11:40:47;93524.63;;;-2.20;95.72
18137;BME280;9194;42.632;23.298;2024-01-10T11:45:55;93512.78;;;-2.10;95.86
18137;BME280;9194;42.632;23.298;2024-01-10T11:50:57;93505.63;;;-2.16;94.63
18137;BME280;9194;42.632;23.298;2024-01-10T11:56:09;93500.47;;;-2.05;94.41
18137;BME280;9194;42.632;23.298;2024-01-10T12:01:12;93491.50;;;-1.99;97.23
18137;BME280;9194;42.632;23.298;2024-01-10T12:06:14;93485.59;;;-2.00;92.86
18137;BME280;9194;42.632;23.298;2024-01-10T12:11:16;93478.75;;;-1.99;95.31
18137;BME280;9194;42.632;23.298;2024-01-10T12:16:18;93475.00;;;-1.95;96.20
18137;BME280;9194;42.632;23.298;2024-01-10T12:21:19;93458.56;;;-2.02;97.98
18137;BME280;9194;42.632;23.298;2024-01-10T12:26:20;93470.44;;;-1.92;93.86
18137;BME280;9194;42.632;23.298;2024-01-10T12:31:22;93476.38;;;-1.91;96.50
18137;BME280;9194;42.632;23.298;2024-01-10T12:36:23;93470.59;;;-2.14;100.00
18137;BME280;9194;42.632;23.298;2024-01-10T12:41:26;93473.03;;;-2.33;100.00
18137;BME280;9194;42.632;23.298;2024-01-10T12:46:27;93479.94;;;-2.56;100.00
18137;BME280;9194;42.632;23.298;2024-01-10T12:51:29;93483.13;;;-2.64;100.00
18137;BME280;9194;42.632;23.298;2024-01-10T12:56:31;93485.59;;;-2.84;100.00
18137;BME280;9194;42.632;23.298;2024-01-10T13:01:32;93480.44;;;-2.94;100.00
18137;BME280;9194;42.632;23.298;2024-01-10T13:06:33;93491.47;;;-3.05;100.00
18137;BME280;9194;42.632;23.298;2024-01-10T13:11:34;93488.78;;;-3.14;100.00
18137;BME280;9194;42.632;23.298;2024-01-10T13:16:35;93496.22;;;-3.22;100.00
18137;BME280;9194;42.632;23.298;2024-01-10T13:21:37;93492.31;;;-3.26;100.00
18137;BME280;9194;42.632;23.298;2024-01-10T13:26:38;93488.81;;;-3.37;100.00
18137;BME280;9194;42.632;23.298;2024-01-10T13:31:39;93489.53;;;-3.46;100.00
18137;BME280;9194;42.632;23.298;2024-01-10T13:36:41;93484.69;;;-3.71;100.00
18137;BME280;9194;42.632;23.298;2024-01-10T13:41:42;93488.03;;;-3.82;100.00
18137;BME280;9194;42.632;23.298;2024-01-10T13:46:43;93476.69;;;-3.89;100.00
18137;BME280;9194;42.632;23.298;2024-01-10T13:51:44;93488.03;;;-3.82;100.00
18137;BME280;9194;42.632;23.298;2024-01-10T13:56:45;93492.31;;;-3.82;100.00
18137;BME280;9194;42.632;23.298;2024-01-10T14:01:47;93487.91;;;-3.91;100.00
18137;BME280;9194;42.632;23.298;2024-01-10T14:06:48;93483.13;;;-4.07;100.00
18137;BME280;9194;42.632;23.298;2024-01-10T14:11:49;93501.38;;;-4.13;100.00
18137;BME280;9194;42.632;23.298;2024-01-10T14:16:51;93503.69;;;-4.21;100.00
18137;BME280;9194;42.632;23.298;2024-01-10T14:21:52;93505.53;;;-4.23;100.00
18137;BME280;9194;42.632;23.298;2024-01-10T14:26:53;93513.81;;;-4.32;100.00
18137;BME280;9194;42.632;23.298;2024-01-10T14:31:55;93502.81;;;-4.44;100.00
18137;BME280;9194;42.632;23.298;2024-01-10T14:36:56;93511.94;;;-4.41;100.00
18137;BME280;9194;42.632;23.298;2024-01-10T14:41:58;93509.25;;;-4.51;100.00
18137;BME280;9194;42.632;23.298;2024-01-10T14:46:59;93513.84;;;-4.56;100.00
18137;BME280;9194;42.632;23.298;2024-01-10T14:52:00;93509.78;;;-4.59;100.00
18137;BME280;9194;42.632;23.298;2024-01-10T14:57:02;93509.31;;;-4.64;100.00
18137;BME280;9194;42.632;23.298;2024-01-10T15:02:04;93504.91;;;-4.73;100.00
18137;BME280;9194;42.632;23.298;2024-01-10T15:07:08;93503.22;;;-4.85;100.00
18137;BME280;9194;42.632;23.298;2024-01-10T15:12:09;93506.19;;;-4.91;100.00
18137;BME280;9194;42.632;23.298;2024-01-10T15:17:11;93507.53;;;-4.98;100.00
18137;BME280;9194;42.632;23.298;2024-01-10T15:22:12;93511.00;;;-4.99;100.00
18137;BME280;9194;42.632;23.298;2024-01-10T15:27:13;93510.59;;;-5.06;100.00
18137;BME280;9194;42.632;23.298;2024-01-10T15:32:15;93509.91;;;-5.08;100.00
18137;BME280;9194;42.632;23.298;2024-01-10T15:37:17;93515.03;;;-5.20;100.00
18137;BME280;9194;42.632;23.298;2024-01-10T15:42:18;93509.16;;;-5.33;100.00
18137;BME280;9194;42.632;23.298;2024-01-10T15:47:19;93505.59;;;-5.18;100.00
18137;BME280;9194;42.632;23.298;2024-01-10T15:52:20;93513.41;;;-5.21;100.00
18137;BME280;9194;42.632;23.298;2024-01-10T15:57:27;93507.34;;;-5.31;100.00
18137;BME280;9194;42.632;23.298;2024-01-10T16:02:28;93505.31;;;-5.26;100.00
18137;BME280;9194;42.632;23.298;2024-01-10T16:07:32;93516.25;;;-5.13;100.00
18137;BME280;9194;42.632;23.298;2024-01-10T16:12:33;93514.28;;;-5.10;100.00
18137;BME280;9194;42.632;23.298;2024-01-10T16:17:34;93507.69;;;-5.12;100.00
18137;BME280;9194;42.632;23.298;2024-01-10T16:22:36;93514.13;;;-5.19;100.00
18137;BME280;9194;42.632;23.298;2024-01-10T16:27:37;93516.16;;;-5.24;100.00
18137;BME280;9194;42.632;23.298;2024-01-10T16:32:38;93523.97;;;-5.27;100.00
18137;BME280;9194;42.632;23.298;2024-01-10T16:37:39;93528.22;;;-5.28;100.00
18137;BME280;9194;42.632;23.298;2024-01-10T16:42:40;93527.81;;;-5.22;100.00
18137;BME280;9194;42.632;23.298;2024-01-10T16:47:42;93531.41;;;-5.37;100.00
18137;BME280;9194;42.632;23.298;2024-01-10T16:52:43;93535.59;;;-5.49;100.00
18137;BME280;9194;42.632;23.298;2024-01-10T16:57:44;93535.88;;;-5.41;100.00
18137;BME280;9194;42.632;23.298;2024-01-10T17:02:45;93533.97;;;-5.50;100.00
18137;BME280;9194;42.632;23.298;2024-01-10T17:07:47;93540.97;;;-5.53;100.00
18137;BME280;9194;42.632;23.298;2024-01-10T17:12:48;93538.72;;;-5.58;100.00
18137;BME280;9194;42.632;23.298;2024-01-10T17:17:49;93538.47;;;-5.66;100.00
18137;BME280;9194;42.632;23.298;2024-01-10T17:22:51;93541.09;;;-5.67;100.00
18137;BME280;9194;42.632;23.298;2024-01-10T17:27:53;93550.63;;;-5.71;100.00
18137;BME280;9194;42.632;23.298;2024-01-10T17:32:56;93541.28;;;-5.70;100.00
18137;BME280;9194;42.632;23.298;2024-01-10T17:37:57;93547.56;;;-5.76;100.00
18137;BME280;9194;42.632;23.298;2024-01-10T17:42:59;93547.56;;;-5.76;100.00
18137;BME280;9194;42.632;23.298;2024-01-10T17:48:00;93552.03;;;-5.80;100.00
18137;BME280;9194;42.632;23.298;2024-01-10T17:53:01;93542.31;;;-5.86;100.00
18137;BME280;9194;42.632;23.298;2024-01-10T17:58:04;93546.56;;;-5.86;100.00
18137;BME280;9194;42.632;23.298;2024-01-10T18:03:05;93548.72;;;-5.93;100.00
18137;BME280;9194;42.632;23.298;2024-01-10T18:08:06;93549.44;;;-6.03;100.00
18137;BME280;9194;42.632;23.298;2024-01-10T18:13:08;93551.06;;;-6.02;100.00
18137;BME280;9194;42.632;23.298;2024-01-10T18:18:09;93542.72;;;-6.04;100.00
18137;BME280;9194;42.632;23.298;2024-01-10T18:23:10;93544.34;;;-6.03;100.00
18137;BME280;9194;42.632;23.298;2024-01-10T18:28:12;93553.50;;;-6.01;100.00
18137;BME280;9194;42.632;23.298;2024-01-10T18:33:16;93548.31;;;-5.99;100.00
18137;BME280;9194;42.632;23.298;2024-01-10T18:38:17;93555.72;;;-5.96;100.00
18137;BME280;9194;42.632;23.298;2024-01-10T18:43:18;93546.47;;;-6.10;100.00
18137;BME280;9194;42.632;23.298;2024-01-10T18:48:20;93548.00;;;-6.07;100.00
18137;BME280;9194;42.632;23.298;2024-01-10T18:53:21;93539.28;;;-6.16;100.00
18137;BME280;9194;42.632;23.298;2024-01-10T18:58:22;93551.53;;;-6.10;100.00
18137;BME280;9194;42.632;23.298;2024-01-10T19:03:23;93546.78;;;-6.14;100.00
18137;BME280;9194;42.632;23.298;2024-01-10T19:08:24;93538.84;;;-6.23;100.00
18137;BME280;9194;42.632;23.298;2024-01-10T19:13:27;93526.19;;;-6.23;100.00
18137;BME280;9194;42.632;23.298;2024-01-10T19:18:28;93544.75;;;-6.22;100.00
18137;BME280;9194;42.632;23.298;2024-01-10T19:23:30;93529.03;;;-6.27;100.00
18137;BME280;9194;42.632;23.298;2024-01-10T19:28:31;93546.84;;;-6.29;100.00
18137;BME280;9194;42.632;23.298;2024-01-10T19:33:32;93545.44;;;-6.33;100.00
18137;BME280;9194;42.632;23.298;2024-01-10T19:38:33;93545.75;;;-6.37;100.00
18137;BME280;9194;42.632;23.298;2024-01-10T19:43:35;93543.13;;;-6.36;100.00
18137;BME280;9194;42.632;23.298;2024-01-10T19:48:36;93547.97;;;-6.33;100.00
18137;BME280;9194;42.632;23.298;2024-01-10T19:53:37;93544.41;;;-6.43;100.00
18137;BME280;9194;42.632;23.298;2024-01-10T19:58:39;93549.47;;;-6.43;100.00
18137;BME280;9194;42.632;23.298;2024-01-10T20:03:40;93547.66;;;-6.41;100.00
18137;BME280;9194;42.632;23.298;2024-01-10T20:08:41;93530.41;;;-6.48;100.00
18137;BME280;9194;42.632;23.298;2024-01-10T20:13:42;93538.84;;;-6.48;100.00
18137;BME280;9194;42.632;23.298;2024-01-10T20:18:44;93543.09;;;-6.48;100.00
18137;BME280;9194;42.632;23.298;2024-01-10T20:23:45;93532.53;;;-6.55;100.00
18137;BME280;9194;42.632;23.298;2024-01-10T20:28:46;93538.50;;;-6.56;100.00
18137;BME280;9194;42.632;23.298;2024-01-10T20:33:48;93527.84;;;-6.61;100.00
18137;BME280;9194;42.632;23.298;2024-01-10T20:38:49;93527.84;;;-6.61;100.00
18137;BME280;9194;42.632;23.298;2024-01-10T20:43:51;93538.19;;;-6.64;100.00
18137;BME280;9194;42.632;23.298;2024-01-10T20:48:52;93534.13;;;-6.67;100.00
18137;BME280;9194;42.632;23.298;2024-01-10T20:53:55;93540.59;;;-6.63;100.00
18137;BME280;9194;42.632;23.298;2024-01-10T20:58:56;93545.56;;;-6.61;100.00
18137;BME280;9194;42.632;23.298;2024-01-10T21:03:57;93561.25;;;-6.69;100.00
18137;BME280;9194;42.632;23.298;2024-01-10T21:08:59;93564.78;;;-6.71;100.00
18137;BME280;9194;42.632;23.298;2024-01-10T21:14:00;93557.19;;;-6.71;100.00
18137;BME280;9194;42.632;23.298;2024-01-10T21:19:01;93560.25;;;-6.66;100.00
18137;BME280;9194;42.632;23.298;2024-01-10T21:24:04;93549.25;;;-6.79;100.00
18137;BME280;9194;42.632;23.298;2024-01-10T21:29:06;93552.53;;;-6.77;100.00
18137;BME280;9194;42.632;23.298;2024-01-10T21:34:07;93548.66;;;-6.83;100.00
18137;BME280;9194;42.632;23.298;2024-01-10T21:39:08;93554.41;;;-6.81;100.00
18137;BME280;9194;42.632;23.298;2024-01-10T21:44:09;93555.72;;;-6.88;100.00
18137;BME280;9194;42.632;23.298;2024-01-10T21:49:10;93556.72;;;-6.90;100.00
18137;BME280;9194;42.632;23.298;2024-01-10T21:54:12;93551.03;;;-6.94;100.00
18137;BME280;9194;42.632;23.298;2024-01-10T21:59:13;93561.78;;;-6.90;100.00
18137;BME280;9194;42.632;23.298;2024-01-10T22:04:14;93551.13;;;-6.95;100.00
18137;BME280;9194;42.632;23.298;2024-01-10T22:09:15;93556.19;;;-6.95;100.00
18137;BME280;9194;42.632;23.298;2024-01-10T22:14:16;93548.31;;;-6.91;100.00
18137;BME280;9194;42.632;23.298;2024-01-10T22:19:18;93551.56;;;-6.89;100.00
18137;BME280;9194;42.632;23.298;2024-01-10T22:24:19;93545.69;;;-6.89;100.00
18137;BME280;9194;42.632;23.298;2024-01-10T22:29:20;93529.25;;;-6.96;100.00
18137;BME280;9194;42.632;23.298;2024-01-10T22:34:24;93528.97;;;-6.92;100.00
18137;BME280;9194;42.632;23.298;2024-01-10T22:39:25;93524.63;;;-6.90;100.00
18137;BME280;9194;42.632;23.298;2024-01-10T22:44:26;93508.34;;;-6.86;100.00
18137;BME280;9194;42.632;23.298;2024-01-10T22:49:27;93518.66;;;-6.89;100.00
18137;BME280;9194;42.632;23.298;2024-01-10T22:54:29;93516.06;;;-6.87;100.00
18137;BME280;9194;42.632;23.298;2024-01-10T22:59:30;93500.88;;;-6.87;100.00
18137;BME280;9194;42.632;23.298;2024-01-10T23:04:32;93496.19;;;-6.93;100.00
18137;BME280;9194;42.632;23.298;2024-01-10T23:09:33;93498.81;;;-6.95;100.00
18137;BME280;9194;42.632;23.298;2024-01-10T23:14:34;93495.31;;;-7.07;100.00
18137;BME280;9194;42.632;23.298;2024-01-10T23:19:35;93484.09;;;-7.02;100.00
18137;BME280;9194;42.632;23.298;2024-01-10T23:24:37;93478.53;;;-7.08;100.00
18137;BME280;9194;42.632;23.298;2024-01-10T23:29:38;93466.25;;;-7.14;100.00
18137;BME280;9194;42.632;23.298;2024-01-10T23:34:39;93454.41;;;-7.13;100.00
18137;BME280;9194;42.632;23.298;2024-01-10T23:39:43;93461.72;;;-7.09;100.00
18137;BME280;9194;42.632;23.298;2024-01-10T23:44:44;93471.22;;;-7.12;100.00
18137;BME280;9194;42.632;23.298;2024-01-10T23:49:45;93465.53;;;-7.16;100.00
18137;BME280;9194;42.632;23.298;2024-01-10T23:54:48;93454.72;;;-7.18;100.00
18137;BME280;9194;42.632;23.298;2024-01-10T23:59:49;93447.13;;;-7.18;100.00
